Time,TemperatureF,DewpointF,PressureIn,WindDirection,WindDirectionDegrees,WindSpeedMPH,WindSpeedGustMPH,Humidity,HourlyPrecipIn,Conditions,Clouds,dailyrainin,SoftwareType,DateUTC
2013-08-19 00:00:00,64.1,61.0,30.15,North,10,0.0,236.6,90,0.00,,,0.00,VWS V14.01,2013-08-19 04:00:00,
2013-08-19 00:01:00,65.3,61.8,30.17,North,10,0.0,236.6,88,0.00,,,0.00,VWS V14.01,2013-08-19 04:01:00,
2013-08-19 00:02:00,65.3,61.8,30.16,North,10,0.0,236.6,88,0.00,,,0.00,VWS V14.01,2013-08-19 04:02:00,
2013-08-19 00:03:00,65.3,61.8,30.17,North,10,0.0,236.6,88,0.00,,,0.00,VWS V14.01,2013-08-19 04:03:00,
2013-08-19 00:04:00,64.0,61.0,30.15,North,10,0.0,236.6,90,0.00,,,0.00,VWS V14.01,2013-08-19 04:04:00,
2013-08-19 00:05:00,65.2,61.7,30.17,North,10,0.0,236.6,88,0.00,,,0.00,VWS V14.01,2013-08-19 04:05:00,
2013-08-19 00:06:00,64.0,61.0,30.15,North,10,0.0,236.6,90,0.00,,,0.00,VWS V14.01,2013-08-19 04:06:00,
2013-08-19 00:07:00,64.0,61.0,30.15,North,10,0.0,236.6,90,0.00,,,0.00,VWS V14.01,2013-08-19 04:07:00,
2013-08-19 00:08:00,65.2,61.7,30.16,North,10,0.0,236.6,88,0.00,,,0.00,VWS V14.01,2013-08-19 04:08:00,
2013-08-19 00:09:00,63.9,61.0,30.15,North,10,0.0,236.6,90,0.00,,,0.00,VWS V14.01,2013-08-19 04:09:00,
2013-08-19 00:10:00,63.9,61.0,30.15,North,10,0.0,236.6,90,0.00,,,0.00,VWS V14.01,2013-08-19 04:10:00,
2013-08-19 00:11:00,63.9,61.0,30.15,North,10,0.0,236.6,90,0.00,,,0.00,VWS V14.01,2013-08-19 04:11:00,
2013-08-19 00:12:00,63.8,60.8,30.15,North,10,0.0,236.6,90,0.00,,,0.00,VWS V14.01,2013-08-19 04:12:00,
2013-08-19 00:13:00,65.0,61.6,30.16,North,10,0.0,236.6,89,0.00,,,0.00,VWS V14.01,2013-08-19 04:13:00,
2013-08-19 00:14:00,63.8,60.8,30.15,North,10,0.0,236.6,90,0.00,,,0.00,VWS V14.01,2013-08-19 04:14:00,
2013-08-19 00:15:00,63.7,60.8,30.15,North,10,0.0,236.6,90,0.00,,,0.00,VWS V14.01,2013-08-19 04:15:00,
2013-08-19 00:16:00,63.8,60.9,30.15,North,10,0.0,236.6,90,0.00,,,0.00,VWS V14.01,2013-08-19 04:16:00,
2013-08-19 00:17:00,63.7,60.8,30.15,North,10,0.0,236.6,90,0.00,,,0.00,VWS V14.01,2013-08-19 04:17:00,
2013-08-19 00:18:00,63.7,60.8,30.15,North,10,0.0,236.6,90,0.00,,,0.00,VWS V14.01,2013-08-19 04:18:00,
2013-08-19 00:19:00,64.9,61.5,30.16,North,10,0.0,236.6,89,0.00,,,0.00,VWS V14.01,2013-08-19 04:19:00,
2013-08-19 00:20:00,63.7,60.8,30.15,North,10,0.0,236.6,90,0.00,,,0.00,VWS V14.01,2013-08-19 04:20:00,
2013-08-19 00:21:00,63.7,60.9,30.15,North,10,0.0,236.6,90,0.00,,,0.00,VWS V14.01,2013-08-19 04:21:00,
2013-08-19 00:22:00,63.6,60.8,30.15,North,10,0.0,236.6,90,0.00,,,0.00,VWS V14.01,2013-08-19 04:22:00,
2013-08-19 00:23:00,63.6,60.8,30.15,North,10,0.0,236.6,90,0.00,,,0.00,VWS V14.01,2013-08-19 04:23:00,
2013-08-19 00:24:00,64.8,61.3,30.16,North,10,0.0,236.6,88,0.00,,,0.00,VWS V14.01,2013-08-19 04:24:00,
2013-08-19 00:25:00,63.6,60.8,30.15,North,10,0.0,236.6,90,0.00,,,0.00,VWS V14.01,2013-08-19 04:25:00,
2013-08-19 00:26:00,63.6,60.8,30.15,North,10,0.0,236.6,90,0.00,,,0.00,VWS V14.01,2013-08-19 04:26:00,
2013-08-19 00:27:00,63.6,60.8,30.15,North,10,0.0,236.6,90,0.00,,,0.00,VWS V14.01,2013-08-19 04:27:00,
2013-08-19 00:28:00,63.6,60.8,30.15,North,10,0.0,236.6,90,0.00,,,0.00,VWS V14.01,2013-08-19 04:28:00,
2013-08-19 00:29:00,64.7,61.3,30.16,North,10,0.0,236.6,89,0.00,,,0.00,VWS V14.01,2013-08-19 04:29:00,
2013-08-19 00:30:00,63.5,60.7,30.15,North,10,0.0,236.6,90,0.00,,,0.00,VWS V14.01,2013-08-19 04:30:00,
2013-08-19 00:31:00,63.6,60.7,30.15,North,10,0.0,236.6,90,0.00,,,0.00,VWS V14.01,2013-08-19 04:31:00,
2013-08-19 00:32:00,63.5,60.6,30.15,North,10,0.0,236.6,90,0.00,,,0.00,VWS V14.01,2013-08-19 04:32:00,
2013-08-19 00:33:00,63.5,60.6,30.15,North,10,0.0,236.6,90,0.00,,,0.00,VWS V14.01,2013-08-19 04:33:00,
2013-08-19 00:34:00,64.7,61.5,30.15,North,10,0.0,236.6,89,0.00,,,0.00,VWS V14.01,2013-08-19 04:34:00,
2013-08-19 00:36:00,63.5,60.6,30.15,North,10,0.0,236.6,90,0.00,,,0.00,VWS V14.01,2013-08-19 04:36:00,
2013-08-19 00:37:00,63.5,60.6,30.15,North,10,0.0,236.6,90,0.00,,,0.00,VWS V14.01,2013-08-19 04:37:00,
2013-08-19 00:38:00,63.5,60.7,30.15,North,10,0.0,236.6,90,0.00,,,0.00,VWS V14.01,2013-08-19 04:38:00,
2013-08-19 00:39:00,64.5,61.3,30.15,North,10,0.0,236.6,89,0.00,,,0.00,VWS V14.01,2013-08-19 04:39:00,
2013-08-19 00:40:00,63.5,60.7,30.15,North,10,0.0,236.6,90,0.00,,,0.00,VWS V14.01,2013-08-19 04:40:00,
2013-08-19 00:41:00,63.4,60.6,30.15,North,10,0.0,236.6,91,0.00,,,0.00,VWS V14.01,2013-08-19 04:41:00,
2013-08-19 00:42:00,63.4,60.6,30.15,North,10,0.0,236.6,91,0.00,,,0.00,VWS V14.01,2013-08-19 04:42:00,
2013-08-19 00:43:00,63.4,60.6,30.15,North,10,0.0,236.6,91,0.00,,,0.00,VWS V14.01,2013-08-19 04:43:00,
2013-08-19 00:44:00,63.4,60.6,30.15,North,10,0.0,236.6,91,0.00,,,0.00,VWS V14.01,2013-08-19 04:44:00,
2013-08-19 00:45:00,64.4,61.2,30.15,North,10,0.0,236.6,89,0.00,,,0.00,VWS V14.01,2013-08-19 04:45:00,
2013-08-19 00:46:00,63.3,60.6,30.15,North,10,0.0,236.6,91,0.00,,,0.00,VWS V14.01,2013-08-19 04:46:00,
2013-08-19 00:47:00,63.4,60.7,30.15,North,10,0.0,236.6,91,0.00,,,0.00,VWS V14.01,2013-08-19 04:47:00,
2013-08-19 00:48:00,63.3,60.6,30.15,North,10,0.0,236.6,91,0.00,,,0.00,VWS V14.01,2013-08-19 04:48:00,
2013-08-19 00:49:00,63.3,60.6,30.15,North,10,0.0,236.6,91,0.00,,,0.00,VWS V14.01,2013-08-19 04:49:00,
2013-08-19 00:50:00,64.3,61.1,30.15,North,10,0.0,236.6,89,0.00,,,0.00,VWS V14.01,2013-08-19 04:50:00,
2013-08-19 00:51:00,63.2,60.5,30.15,North,10,0.0,236.6,91,0.00,,,0.00,VWS V14.01,2013-08-19 04:51:00,
2013-08-19 00:52:00,63.2,60.6,30.15,North,10,0.0,236.6,91,0.00,,,0.00,VWS V14.01,2013-08-19 04:52:00,
2013-08-19 00:53:00,63.1,60.5,30.15,North,10,0.0,236.6,91,0.00,,,0.00,VWS V14.01,2013-08-19 04:53:00,
2013-08-19 00:54:00,63.1,60.5,30.15,North,10,0.0,236.6,91,0.00,,,0.00,VWS V14.01,2013-08-19 04:54:00,
2013-08-19 00:55:00,64.1,61.0,30.15,North,10,0.0,236.6,90,0.00,,,0.00,VWS V14.01,2013-08-19 04:55:00,
2013-08-19 00:56:00,63.0,60.4,30.15,North,10,0.0,236.6,91,0.00,,,0.00,VWS V14.01,2013-08-19 04:56:00,
2013-08-19 00:57:00,63.0,60.5,30.15,North,10,0.0,236.6,91,0.00,,,0.00,VWS V14.01,2013-08-19 04:57:00,
2013-08-19 00:58:00,63.0,60.5,30.15,North,10,0.0,236.6,91,0.00,,,0.00,VWS V14.01,2013-08-19 04:58:00,
2013-08-19 00:59:00,63.0,60.5,30.15,North,10,0.0,236.6,92,0.00,,,0.00,VWS V14.01,2013-08-19 04:59:00,
2013-08-19 01:00:00,62.9,60.4,30.14,North,10,0.0,236.6,92,0.00,,,0.00,VWS V14.01,2013-08-19 05:00:00,
2013-08-19 01:01:00,62.9,60.4,30.14,North,10,0.0,236.6,92,0.00,,,0.00,VWS V14.01,2013-08-19 05:01:00,
2013-08-19 01:03:00,62.8,60.3,30.14,North,10,0.0,236.6,92,0.00,,,0.00,VWS V14.01,2013-08-19 05:03:00,
2013-08-19 01:04:00,62.9,60.4,30.14,North,10,0.0,236.6,91,0.00,,,0.00,VWS V14.01,2013-08-19 05:04:00,
2013-08-19 01:05:00,62.8,60.3,30.14,North,10,0.0,236.6,92,0.00,,,0.00,VWS V14.01,2013-08-19 05:05:00,
2013-08-19 01:06:00,62.8,60.3,30.14,North,10,0.0,236.6,92,0.00,,,0.00,VWS V14.01,2013-08-19 05:06:00,
2013-08-19 01:07:00,62.8,60.3,30.14,North,10,0.0,236.6,92,0.00,,,0.00,VWS V14.01,2013-08-19 05:07:00,
2013-08-19 01:08:00,62.7,60.2,30.14,North,10,0.0,236.6,92,0.00,,,0.00,VWS V14.01,2013-08-19 05:08:00,
2013-08-19 01:09:00,62.7,60.3,30.14,North,10,0.0,236.6,92,0.00,,,0.00,VWS V14.01,2013-08-19 05:09:00,
2013-08-19 01:10:00,62.7,60.3,30.14,North,10,0.0,236.6,92,0.00,,,0.00,VWS V14.01,2013-08-19 05:10:00,
2013-08-19 01:11:00,62.7,60.3,30.14,North,10,0.0,236.6,92,0.00,,,0.00,VWS V14.01,2013-08-19 05:11:00,
2013-08-19 01:12:00,62.7,60.3,30.14,North,10,0.0,236.6,92,0.00,,,0.00,VWS V14.01,2013-08-19 05:12:00,
2013-08-19 01:13:00,62.6,60.3,30.14,North,10,0.0,236.6,92,0.00,,,0.00,VWS V14.01,2013-08-19 05:13:00,
2013-08-19 01:14:00,62.7,60.4,30.14,North,10,0.0,236.6,92,0.00,,,0.00,VWS V14.01,2013-08-19 05:14:00,
2013-08-19 01:15:00,62.6,60.3,30.14,North,10,0.0,236.6,92,0.00,,,0.00,VWS V14.01,2013-08-19 05:15:00,
2013-08-19 01:16:00,62.5,60.2,30.14,North,10,0.0,236.6,92,0.00,,,0.00,VWS V14.01,2013-08-19 05:16:00,
2013-08-19 01:17:00,62.6,60.3,30.14,North,10,0.0,236.6,92,0.00,,,0.00,VWS V14.01,2013-08-19 05:17:00,
2013-08-19 01:18:00,62.6,60.3,30.14,North,10,0.0,236.6,92,0.00,,,0.00,VWS V14.01,2013-08-19 05:18:00,
2013-08-19 01:19:00,62.5,60.2,30.14,North,10,0.0,236.6,92,0.00,,,0.00,VWS V14.01,2013-08-19 05:19:00,
2013-08-19 01:20:00,62.5,60.3,30.14,North,10,0.0,236.6,92,0.00,,,0.00,VWS V14.01,2013-08-19 05:20:00,
2013-08-19 01:21:00,62.6,60.4,30.14,North,10,0.0,236.6,92,0.00,,,0.00,VWS V14.01,2013-08-19 05:21:00,
2013-08-19 01:22:00,62.6,60.4,30.14,North,10,0.0,236.6,92,0.00,,,0.00,VWS V14.01,2013-08-19 05:22:00,
2013-08-19 01:23:00,62.5,60.3,30.14,North,10,0.0,236.6,92,0.00,,,0.00,VWS V14.01,2013-08-19 05:23:00,
2013-08-19 01:25:00,62.5,60.3,30.14,North,10,0.0,236.6,92,0.00,,,0.00,VWS V14.01,2013-08-19 05:25:00,
2013-08-19 01:26:00,62.5,60.3,30.14,North,10,0.0,236.6,93,0.00,,,0.00,VWS V14.01,2013-08-19 05:26:00,
2013-08-19 01:27:00,62.5,60.3,30.14,North,10,0.0,236.6,92,0.00,,,0.00,VWS V14.01,2013-08-19 05:27:00,
2013-08-19 01:29:00,62.5,60.3,30.14,North,10,0.0,236.6,92,0.00,,,0.00,VWS V14.01,2013-08-19 05:29:00,
2013-08-19 01:30:00,62.5,60.3,30.14,North,10,0.0,236.6,92,0.00,,,0.00,VWS V14.01,2013-08-19 05:30:00,
2013-08-19 01:33:00,62.4,60.2,30.14,North,10,0.0,236.6,92,0.00,,,0.00,VWS V14.01,2013-08-19 05:33:00,
2013-08-19 01:34:00,62.5,60.3,30.14,North,10,0.0,236.6,93,0.00,,,0.00,VWS V14.01,2013-08-19 05:34:00,
2013-08-19 01:36:00,62.4,60.2,30.14,North,10,0.0,236.6,93,0.00,,,0.00,VWS V14.01,2013-08-19 05:36:00,
2013-08-19 01:39:00,62.5,60.3,30.14,North,10,0.0,236.6,92,0.00,,,0.00,VWS V14.01,2013-08-19 05:39:00,
2013-08-19 01:40:00,62.5,60.2,30.14,North,10,0.0,236.6,92,0.00,,,0.00,VWS V14.01,2013-08-19 05:40:00,
2013-08-19 01:41:00,62.5,60.2,30.13,North,10,0.0,236.6,92,0.00,,,0.00,VWS V14.01,2013-08-19 05:41:00,
2013-08-19 01:45:00,62.5,60.1,30.13,North,10,0.0,236.6,92,0.00,,,0.00,VWS V14.01,2013-08-19 05:45:00,
2013-08-19 01:46:00,62.5,60.1,30.13,North,10,0.0,236.6,92,0.00,,,0.00,VWS V14.01,2013-08-19 05:46:00,
2013-08-19 01:48:00,62.6,60.2,30.13,North,10,0.0,236.6,92,0.00,,,0.00,VWS V14.01,2013-08-19 05:48:00,
2013-08-19 01:54:00,62.6,60.3,30.14,North,10,0.0,236.6,92,0.00,,,0.00,VWS V14.01,2013-08-19 05:54:00,
2013-08-19 01:56:00,62.6,60.3,30.14,North,10,0.0,236.6,92,0.00,,,0.00,VWS V14.01,2013-08-19 05:56:00,
2013-08-19 01:57:00,62.6,60.3,30.14,North,10,0.0,236.6,92,0.00,,,0.00,VWS V14.01,2013-08-19 05:57:00,
2013-08-19 02:11:00,62.5,60.2,30.13,North,10,0.0,236.6,92,0.00,,,0.00,VWS V14.01,2013-08-19 06:11:00,
2013-08-19 02:14:00,62.5,60.2,30.13,North,10,0.0,236.6,92,0.00,,,0.00,VWS V14.01,2013-08-19 06:14:00,
2013-08-19 02:21:00,62.6,60.4,30.14,North,10,0.0,236.6,92,0.00,,,0.00,VWS V14.01,2013-08-19 06:21:00,
2013-08-19 02:27:00,62.5,60.3,30.14,North,10,0.0,236.6,92,0.00,,,0.00,VWS V14.01,2013-08-19 06:27:00,
2013-08-19 02:34:00,62.5,60.3,30.14,North,10,0.0,236.6,92,0.00,,,0.00,VWS V14.01,2013-08-19 06:34:00,
2013-08-19 02:39:00,62.5,60.2,30.13,North,10,0.0,236.6,92,0.00,,,0.00,VWS V14.01,2013-08-19 06:39:00,
2013-08-19 02:44:00,62.6,60.2,30.13,North,10,0.0,236.6,92,0.00,,,0.00,VWS V14.01,2013-08-19 06:44:00,
2013-08-19 02:49:00,62.6,60.2,30.14,North,10,0.0,236.6,92,0.00,,,0.00,VWS V14.01,2013-08-19 06:49:00,
2013-08-19 02:54:00,62.6,60.3,30.14,North,10,0.0,236.6,92,0.00,,,0.00,VWS V14.01,2013-08-19 06:54:00,
2013-08-19 03:00:00,62.6,60.3,30.13,North,10,0.0,236.6,92,0.00,,,0.00,VWS V14.01,2013-08-19 07:00:00,
2013-08-19 03:05:00,62.6,60.2,30.13,North,10,0.0,236.6,92,0.00,,,0.00,VWS V14.01,2013-08-19 07:05:00,
2013-08-19 03:10:00,62.5,60.2,30.13,North,10,0.0,236.6,92,0.00,,,0.00,VWS V14.01,2013-08-19 07:10:00,
2013-08-19 03:15:00,62.4,60.0,30.13,North,10,0.0,236.6,92,0.00,,,0.00,VWS V14.01,2013-08-19 07:15:00,
2013-08-19 03:20:00,62.4,59.9,30.13,North,10,0.0,236.6,92,0.00,,,0.00,VWS V14.01,2013-08-19 07:20:00,
2013-08-19 03:26:00,62.3,59.8,30.13,North,10,0.0,236.6,92,0.00,,,0.00,VWS V14.01,2013-08-19 07:26:00,
2013-08-19 03:31:00,62.3,59.8,30.13,North,10,0.0,236.6,92,0.00,,,0.00,VWS V14.01,2013-08-19 07:31:00,
2013-08-19 03:36:00,62.3,59.9,30.13,North,10,0.0,236.6,92,0.00,,,0.00,VWS V14.01,2013-08-19 07:36:00,
2013-08-19 03:41:00,62.3,59.9,30.13,North,10,0.0,236.6,92,0.00,,,0.00,VWS V14.01,2013-08-19 07:41:00,
2013-08-19 03:47:00,62.2,59.8,30.13,North,10,0.0,236.6,92,0.00,,,0.00,VWS V14.01,2013-08-19 07:47:00,
2013-08-19 03:52:00,62.2,59.8,30.13,North,10,0.0,236.6,92,0.00,,,0.00,VWS V14.01,2013-08-19 07:52:00,
2013-08-19 03:57:00,62.1,59.7,30.13,North,10,0.0,236.6,92,0.00,,,0.00,VWS V14.01,2013-08-19 07:57:00,
2013-08-19 04:02:00,62.1,59.7,30.13,North,10,0.0,236.6,92,0.00,,,0.00,VWS V14.01,2013-08-19 08:02:00,
2013-08-19 04:07:00,62.1,59.7,30.13,North,10,0.0,236.6,92,0.00,,,0.00,VWS V14.01,2013-08-19 08:07:00,
2013-08-19 04:13:00,62.1,59.7,30.13,North,10,0.0,236.6,92,0.00,,,0.00,VWS V14.01,2013-08-19 08:13:00,
2013-08-19 04:18:00,62.1,59.6,30.13,North,10,0.0,236.6,92,0.00,,,0.00,VWS V14.01,2013-08-19 08:18:00,
2013-08-19 04:23:00,62.2,59.7,30.13,North,10,0.0,236.6,92,0.00,,,0.00,VWS V14.01,2013-08-19 08:23:00,
2013-08-19 04:28:00,62.1,59.6,30.13,North,10,0.0,236.6,92,0.00,,,0.00,VWS V14.01,2013-08-19 08:28:00,
2013-08-19 04:33:00,62.1,59.6,30.13,North,10,0.0,236.6,92,0.00,,,0.00,VWS V14.01,2013-08-19 08:33:00,
2013-08-19 04:38:00,62.1,59.7,30.13,North,10,0.0,236.6,92,0.00,,,0.00,VWS V14.01,2013-08-19 08:38:00,
2013-08-19 04:44:00,62.1,59.8,30.13,North,10,0.0,236.6,92,0.00,,,0.00,VWS V14.01,2013-08-19 08:44:00,
2013-08-19 04:49:00,62.0,59.7,30.13,North,10,0.0,236.6,92,0.00,,,0.00,VWS V14.01,2013-08-19 08:49:00,
2013-08-19 04:54:00,61.9,59.7,30.13,North,10,0.0,236.6,92,0.00,,,0.00,VWS V14.01,2013-08-19 08:54:00,
2013-08-19 04:59:00,61.9,59.7,30.14,North,10,0.0,236.6,93,0.00,,,0.00,VWS V14.01,2013-08-19 08:59:00,
2013-08-19 05:04:00,62.0,59.9,30.13,North,10,0.0,236.6,93,0.00,,,0.00,VWS V14.01,2013-08-19 09:04:00,
2013-08-19 05:10:00,62.0,59.9,30.13,North,10,0.0,236.6,93,0.00,,,0.00,VWS V14.01,2013-08-19 09:10:00,
2013-08-19 05:15:00,62.0,59.8,30.13,North,10,0.0,236.6,93,0.00,,,0.00,VWS V14.01,2013-08-19 09:15:00,
2013-08-19 05:20:00,62.0,59.8,30.13,North,10,0.0,236.6,93,0.00,,,0.00,VWS V14.01,2013-08-19 09:20:00,
2013-08-19 05:25:00,62.0,59.8,30.13,North,10,0.0,236.6,92,0.00,,,0.00,VWS V14.01,2013-08-19 09:25:00,
2013-08-19 05:31:00,62.0,59.8,30.13,North,10,0.0,236.6,92,0.00,,,0.00,VWS V14.01,2013-08-19 09:31:00,
2013-08-19 05:36:00,62.0,59.8,30.13,North,10,0.0,236.6,92,0.00,,,0.00,VWS V14.01,2013-08-19 09:36:00,
2013-08-19 05:42:00,62.1,59.9,30.13,North,10,0.0,236.6,92,0.00,,,0.00,VWS V14.01,2013-08-19 09:42:00,
2013-08-19 05:47:00,62.1,59.9,30.14,North,10,0.0,236.6,92,0.00,,,0.00,VWS V14.01,2013-08-19 09:47:00,
2013-08-19 05:52:00,62.1,59.8,30.14,North,10,0.0,236.6,92,0.00,,,0.00,VWS V14.01,2013-08-19 09:52:00,
2013-08-19 05:58:00,62.2,60.0,30.14,North,10,0.0,236.6,92,0.00,,,0.00,VWS V14.01,2013-08-19 09:58:00,
2013-08-19 06:04:00,62.2,60.0,30.14,North,10,0.0,236.6,92,0.00,,,0.00,VWS V14.01,2013-08-19 10:04:00,
2013-08-19 06:09:00,62.2,59.9,30.13,North,10,0.0,236.6,92,0.00,,,0.00,VWS V14.01,2013-08-19 10:09:00,
2013-08-19 06:15:00,62.3,60.0,30.13,North,10,0.0,236.6,92,0.00,,,0.00,VWS V14.01,2013-08-19 10:15:00,
2013-08-19 06:21:00,62.3,60.1,30.14,North,10,0.0,236.6,92,0.00,,,0.00,VWS V14.01,2013-08-19 10:21:00,
2013-08-19 06:26:00,62.4,60.2,30.14,North,10,0.0,236.6,92,0.00,,,0.00,VWS V14.01,2013-08-19 10:26:00,
2013-08-19 06:32:00,62.4,60.2,30.14,North,10,0.0,236.6,92,0.00,,,0.00,VWS V14.01,2013-08-19 10:32:00,
2013-08-19 06:37:00,62.4,60.3,30.14,North,10,0.0,236.6,93,0.00,,,0.00,VWS V14.01,2013-08-19 10:37:00,
2013-08-19 06:43:00,62.5,60.4,30.14,North,10,0.0,236.6,93,0.00,,,0.00,VWS V14.01,2013-08-19 10:43:00,
2013-08-19 06:48:00,62.5,60.5,30.14,North,10,0.0,236.6,93,0.00,,,0.00,VWS V14.01,2013-08-19 10:48:00,
2013-08-19 06:54:00,62.6,60.6,30.14,North,10,0.0,236.6,93,0.00,,,0.00,VWS V14.01,2013-08-19 10:54:00,
2013-08-19 06:59:00,62.8,60.8,30.14,North,10,0.0,236.6,93,0.00,,,0.00,VWS V14.01,2013-08-19 10:59:00,
2013-08-19 07:05:00,63.0,61.0,30.14,North,10,0.0,236.6,93,0.00,,,0.00,VWS V14.01,2013-08-19 11:05:00,
2013-08-19 07:10:00,63.2,61.2,30.14,North,10,0.0,236.6,93,0.00,,,0.00,VWS V14.01,2013-08-19 11:10:00,
2013-08-19 07:15:00,63.4,61.3,30.14,North,10,0.0,236.6,93,0.00,,,0.00,VWS V14.01,2013-08-19 11:15:00,
2013-08-19 07:20:00,63.6,61.6,30.14,North,10,0.0,236.6,93,0.00,,,0.00,VWS V14.01,2013-08-19 11:20:00,
2013-08-19 07:25:00,63.9,61.8,30.14,North,10,0.0,236.6,93,0.00,,,0.00,VWS V14.01,2013-08-19 11:25:00,
2013-08-19 07:31:00,64.2,62.1,30.14,North,10,0.0,236.6,93,0.00,,,0.00,VWS V14.01,2013-08-19 11:31:00,
2013-08-19 07:36:00,64.6,62.4,30.14,North,10,0.0,236.6,92,0.00,,,0.00,VWS V14.01,2013-08-19 11:36:00,
2013-08-19 07:41:00,64.9,62.6,30.14,North,10,0.0,236.6,92,0.00,,,0.00,VWS V14.01,2013-08-19 11:41:00,
2013-08-19 07:46:00,65.3,62.9,30.14,North,10,0.0,236.6,92,0.00,,,0.00,VWS V14.01,2013-08-19 11:46:00,
2013-08-19 07:52:00,65.6,63.0,30.14,North,10,0.0,236.6,91,0.00,,,0.00,VWS V14.01,2013-08-19 11:52:00,
2013-08-19 07:58:00,65.8,63.0,30.14,North,10,0.0,236.6,91,0.00,,,0.00,VWS V14.01,2013-08-19 11:58:00,
2013-08-19 08:04:00,65.8,62.9,30.14,North,10,0.0,236.6,90,0.00,,,0.00,VWS V14.01,2013-08-19 12:04:00,
2013-08-19 08:09:00,65.8,62.9,30.14,North,10,0.0,236.6,90,0.00,,,0.00,VWS V14.01,2013-08-19 12:09:00,
2013-08-19 08:16:00,65.9,63.0,30.14,North,10,0.0,236.6,90,0.00,,,0.00,VWS V14.01,2013-08-19 12:16:00,
2013-08-19 08:21:00,66.1,63.0,30.15,North,10,0.0,236.6,90,0.00,,,0.00,VWS V14.01,2013-08-19 12:21:00,
2013-08-19 08:26:00,66.7,63.3,30.14,North,10,0.0,236.6,89,0.00,,,0.00,VWS V14.01,2013-08-19 12:26:00,
2013-08-19 08:32:00,67.1,63.5,30.13,North,10,0.0,236.6,88,0.00,,,0.00,VWS V14.01,2013-08-19 12:32:00,
2013-08-19 08:37:00,67.7,63.7,30.13,North,10,0.0,236.6,87,0.00,,,0.00,VWS V14.01,2013-08-19 12:37:00,
2013-08-19 08:42:00,68.2,63.8,30.13,North,10,0.0,236.6,86,0.00,,,0.00,VWS V14.01,2013-08-19 12:42:00,
2013-08-19 08:47:00,68.5,63.5,30.13,North,10,0.0,236.6,84,0.00,,,0.00,VWS V14.01,2013-08-19 12:47:00,
2013-08-19 08:52:00,69.0,63.6,30.13,North,10,0.0,236.6,83,0.00,,,0.00,VWS V14.01,2013-08-19 12:52:00,
2013-08-19 08:58:00,69.4,63.3,30.13,North,10,0.0,236.6,81,0.00,,,0.00,VWS V14.01,2013-08-19 12:58:00,
2013-08-19 09:03:00,69.9,63.6,30.13,North,10,0.0,236.6,80,0.00,,,0.00,VWS V14.01,2013-08-19 13:03:00,
2013-08-19 09:08:00,70.3,63.7,30.13,North,10,0.0,236.6,80,0.00,,,0.00,VWS V14.01,2013-08-19 13:08:00,
2013-08-19 09:13:00,70.7,63.9,30.13,North,10,0.0,236.6,79,0.00,,,0.00,VWS V14.01,2013-08-19 13:13:00,
2013-08-19 09:19:00,71.2,64.2,30.13,North,10,0.0,236.6,78,0.00,,,0.00,VWS V14.01,2013-08-19 13:19:00,
2013-08-19 09:24:00,71.5,63.8,30.12,North,10,0.0,236.6,77,0.00,,,0.00,VWS V14.01,2013-08-19 13:24:00,
2013-08-19 09:29:00,72.0,64.0,30.12,North,10,0.0,236.6,76,0.00,,,0.00,VWS V14.01,2013-08-19 13:29:00,
2013-08-19 09:34:00,72.5,64.1,30.12,North,10,0.0,236.6,75,0.00,,,0.00,VWS V14.01,2013-08-19 13:34:00,
2013-08-19 09:39:00,73.1,64.1,30.11,North,10,0.0,236.6,74,0.00,,,0.00,VWS V14.01,2013-08-19 13:39:00,
2013-08-19 09:45:00,73.5,63.9,30.11,North,10,0.0,236.6,72,0.00,,,0.00,VWS V14.01,2013-08-19 13:45:00,
2013-08-19 09:50:00,73.7,64.0,30.11,North,10,0.0,236.6,72,0.00,,,0.00,VWS V14.01,2013-08-19 13:50:00,
2013-08-19 09:55:00,74.0,63.3,30.11,North,10,0.0,236.6,69,0.00,,,0.00,VWS V14.01,2013-08-19 13:55:00,
2013-08-19 10:00:00,74.4,64.1,30.11,North,10,0.0,236.6,70,0.00,,,0.00,VWS V14.01,2013-08-19 14:00:00,
2013-08-19 10:05:00,74.7,63.7,30.12,North,10,0.0,236.6,68,0.00,,,0.00,VWS V14.01,2013-08-19 14:05:00,
2013-08-19 10:11:00,75.2,64.0,30.12,North,10,0.0,236.6,68,0.00,,,0.00,VWS V14.01,2013-08-19 14:11:00,
2013-08-19 10:16:00,75.8,64.3,30.12,North,10,0.0,236.6,68,0.00,,,0.00,VWS V14.01,2013-08-19 14:16:00,
2013-08-19 10:21:00,76.2,64.2,30.12,North,10,0.0,236.6,66,0.00,,,0.00,VWS V14.01,2013-08-19 14:21:00,
2013-08-19 10:26:00,76.3,62.6,30.12,North,10,0.0,236.6,62,0.00,,,0.00,VWS V14.01,2013-08-19 14:26:00,
2013-08-19 10:31:00,76.5,63.1,30.12,North,10,0.0,236.6,63,0.00,,,0.00,VWS V14.01,2013-08-19 14:31:00,
2013-08-19 10:37:00,76.7,63.8,30.12,North,10,0.0,236.6,64,0.00,,,0.00,VWS V14.01,2013-08-19 14:37:00,
2013-08-19 10:42:00,77.1,63.7,30.12,North,10,0.0,236.6,63,0.00,,,0.00,VWS V14.01,2013-08-19 14:42:00,
2013-08-19 10:47:00,77.5,63.3,30.12,North,10,0.0,236.6,62,0.00,,,0.00,VWS V14.01,2013-08-19 14:47:00,
2013-08-19 10:52:00,77.9,63.2,30.12,North,10,0.0,236.6,61,0.00,,,0.00,VWS V14.01,2013-08-19 14:52:00,
2013-08-19 10:57:00,78.2,64.0,30.11,North,10,0.0,236.6,62,0.00,,,0.00,VWS V14.01,2013-08-19 14:57:00,
2013-08-19 11:03:00,78.3,62.3,30.11,North,10,0.0,236.6,58,0.00,,,0.00,VWS V14.01,2013-08-19 15:03:00,
2013-08-19 11:08:00,78.7,62.8,30.11,North,10,0.0,236.6,58,0.00,,,0.00,VWS V14.01,2013-08-19 15:08:00,
2013-08-19 11:13:00,79.4,62.9,30.11,North,10,0.0,236.6,57,0.00,,,0.00,VWS V14.01,2013-08-19 15:13:00,
2013-08-19 11:19:00,79.9,63.4,30.11,North,10,0.0,236.6,57,0.00,,,0.00,VWS V14.01,2013-08-19 15:19:00,
2013-08-19 11:24:00,79.8,62.0,30.11,North,10,0.0,236.6,55,0.00,,,0.00,VWS V14.01,2013-08-19 15:24:00,
2013-08-19 11:29:00,79.9,62.4,30.10,NW,319,0.0,236.6,55,0.00,,,0.00,VWS V14.01,2013-08-19 15:29:00,
2013-08-19 11:35:00,80.0,62.5,30.10,NW,319,0.0,236.6,55,0.00,,,0.00,VWS V14.01,2013-08-19 15:35:00,
2013-08-19 11:40:00,80.2,62.7,30.10,NW,319,0.0,236.6,55,0.00,,,0.00,VWS V14.01,2013-08-19 15:40:00,
2013-08-19 11:45:00,80.3,62.6,30.10,NW,319,0.0,236.6,55,0.00,,,0.00,VWS V14.01,2013-08-19 15:45:00,
2013-08-19 11:50:00,80.5,61.2,30.11,NW,319,0.0,236.6,52,0.00,,,0.00,VWS V14.01,2013-08-19 15:50:00,
2013-08-19 11:55:00,80.4,61.2,30.10,NW,319,0.0,236.6,52,0.00,,,0.00,VWS V14.01,2013-08-19 15:55:00,
2013-08-19 12:01:00,80.8,61.9,30.11,NW,319,0.0,236.6,53,0.00,,,0.00,VWS V14.01,2013-08-19 16:01:00,
2013-08-19 12:06:00,80.8,61.7,30.10,NW,319,0.0,236.6,52,0.00,,,0.00,VWS V14.01,2013-08-19 16:06:00,
2013-08-19 12:11:00,80.9,61.4,30.10,NW,319,0.0,236.6,52,0.00,,,0.00,VWS V14.01,2013-08-19 16:11:00,
2013-08-19 12:16:00,80.9,62.1,30.10,NW,319,0.0,236.6,53,0.00,,,0.00,VWS V14.01,2013-08-19 16:16:00,
2013-08-19 12:22:00,81.1,62.2,30.10,NW,319,0.0,236.6,53,0.00,,,0.00,VWS V14.01,2013-08-19 16:22:00,
2013-08-19 12:27:00,80.8,62.1,30.10,NW,319,0.0,236.6,53,0.00,,,0.00,VWS V14.01,2013-08-19 16:27:00,
2013-08-19 12:32:00,80.8,62.3,30.10,NW,319,0.0,236.6,53,0.00,,,0.00,VWS V14.01,2013-08-19 16:32:00,
2013-08-19 12:38:00,80.6,62.9,30.10,NW,319,0.0,236.6,55,0.00,,,0.00,VWS V14.01,2013-08-19 16:38:00,
2013-08-19 12:43:00,80.5,61.4,30.10,NW,319,0.0,236.6,52,0.00,,,0.00,VWS V14.01,2013-08-19 16:43:00,
2013-08-19 12:48:00,80.3,62.5,30.10,NW,319,0.0,236.6,55,0.00,,,0.00,VWS V14.01,2013-08-19 16:48:00,
2013-08-19 12:54:00,80.3,62.9,30.10,NW,319,0.0,236.6,55,0.00,,,0.00,VWS V14.01,2013-08-19 16:54:00,
2013-08-19 12:59:00,80.2,63.2,30.09,NW,319,0.0,236.6,56,0.00,,,0.00,VWS V14.01,2013-08-19 16:59:00,
2013-08-19 13:04:00,80.4,61.5,30.09,NW,319,0.0,236.6,53,0.00,,,0.00,VWS V14.01,2013-08-19 17:04:00,
2013-08-19 13:10:00,80.3,61.5,30.09,NW,319,0.0,236.6,53,0.00,,,0.00,VWS V14.01,2013-08-19 17:10:00,
2013-08-19 13:15:00,80.2,61.3,30.09,NW,319,0.0,236.6,53,0.00,,,0.00,VWS V14.01,2013-08-19 17:15:00,
2013-08-19 13:20:00,80.3,61.5,30.09,NW,319,0.0,236.6,53,0.00,,,0.00,VWS V14.01,2013-08-19 17:20:00,
2013-08-19 13:25:00,80.2,61.4,30.09,WSW,239,0.0,236.6,53,0.00,,,0.00,VWS V14.01,2013-08-19 17:25:00,
2013-08-19 13:31:00,80.1,61.9,30.09,WSW,239,0.0,236.6,54,0.00,,,0.00,VWS V14.01,2013-08-19 17:31:00,
2013-08-19 13:36:00,80.0,62.3,30.09,WSW,239,0.0,236.6,55,0.00,,,0.00,VWS V14.01,2013-08-19 17:36:00,
2013-08-19 13:41:00,80.3,62.0,30.09,WSW,239,0.0,236.6,54,0.00,,,0.00,VWS V14.01,2013-08-19 17:41:00,
2013-08-19 13:46:00,80.4,61.3,30.09,WSW,239,0.0,236.6,52,0.00,,,0.00,VWS V14.01,2013-08-19 17:46:00,
2013-08-19 13:51:00,80.5,62.1,30.09,WSW,239,0.0,236.6,54,0.00,,,0.00,VWS V14.01,2013-08-19 17:51:00,
2013-08-19 13:57:00,80.3,62.2,30.09,WSW,239,0.0,236.6,54,0.00,,,0.00,VWS V14.01,2013-08-19 17:57:00,
2013-08-19 14:02:00,80.7,60.3,30.09,WSW,239,0.0,236.6,50,0.00,,,0.00,VWS V14.01,2013-08-19 18:02:00,
2013-08-19 14:07:00,80.7,60.1,30.08,WSW,239,0.0,236.6,50,0.00,,,0.00,VWS V14.01,2013-08-19 18:07:00,
2013-08-19 14:12:00,80.2,59.6,30.08,WSW,239,0.0,236.6,50,0.00,,,0.00,VWS V14.01,2013-08-19 18:12:00,
2013-08-19 14:18:00,80.4,60.1,30.08,WSW,239,0.0,236.6,50,0.00,,,0.00,VWS V14.01,2013-08-19 18:18:00,
2013-08-19 14:23:00,80.5,60.3,30.08,WSW,239,0.0,236.6,50,0.00,,,0.00,VWS V14.01,2013-08-19 18:23:00,
2013-08-19 14:28:00,80.3,60.5,30.08,WSW,239,0.0,236.6,51,0.00,,,0.00,VWS V14.01,2013-08-19 18:28:00,
2013-08-19 14:33:00,80.4,60.8,30.08,WSW,239,0.0,236.6,51,0.00,,,0.00,VWS V14.01,2013-08-19 18:33:00,
2013-08-19 14:38:00,80.3,60.8,30.08,WSW,239,0.0,236.6,52,0.00,,,0.00,VWS V14.01,2013-08-19 18:38:00,
2013-08-19 14:44:00,80.4,61.0,30.08,WSW,239,0.0,236.6,52,0.00,,,0.00,VWS V14.01,2013-08-19 18:44:00,
2013-08-19 14:49:00,80.4,60.8,30.08,WSW,239,0.0,236.6,51,0.00,,,0.00,VWS V14.01,2013-08-19 18:49:00,
2013-08-19 14:54:00,80.4,61.3,30.08,WSW,239,0.0,236.6,52,0.00,,,0.00,VWS V14.01,2013-08-19 18:54:00,
2013-08-19 14:59:00,80.5,61.4,30.08,WSW,239,0.0,236.6,52,0.00,,,0.00,VWS V14.01,2013-08-19 18:59:00,
2013-08-19 15:04:00,80.4,61.8,30.08,WSW,239,0.0,236.6,53,0.00,,,0.00,VWS V14.01,2013-08-19 19:04:00,
2013-08-19 15:10:00,80.3,61.9,30.08,WSW,239,0.0,236.6,54,0.00,,,0.00,VWS V14.01,2013-08-19 19:10:00,
2013-08-19 15:15:00,80.4,62.3,30.08,WSW,239,0.0,236.6,54,0.00,,,0.00,VWS V14.01,2013-08-19 19:15:00,
2013-08-19 15:20:00,80.3,62.8,30.08,WSW,239,0.0,236.6,55,0.00,,,0.00,VWS V14.01,2013-08-19 19:20:00,
2013-08-19 15:25:00,80.2,62.4,30.08,WSW,239,0.0,236.6,55,0.00,,,0.00,VWS V14.01,2013-08-19 19:25:00,
2013-08-19 15:31:00,80.3,62.7,30.07,WSW,239,0.0,236.6,55,0.00,,,0.00,VWS V14.01,2013-08-19 19:31:00,
2013-08-19 15:36:00,80.5,62.9,30.07,WSW,239,0.0,236.6,55,0.00,,,0.00,VWS V14.01,2013-08-19 19:36:00,
2013-08-19 15:41:00,80.4,63.1,30.07,WSW,239,0.0,236.6,56,0.00,,,0.00,VWS V14.01,2013-08-19 19:41:00,
2013-08-19 15:47:00,80.7,62.6,30.07,WSW,239,0.0,236.6,54,0.00,,,0.00,VWS V14.01,2013-08-19 19:47:00,
2013-08-19 15:52:00,81.2,63.2,30.07,WSW,239,0.0,236.6,54,0.00,,,0.00,VWS V14.01,2013-08-19 19:52:00,
2013-08-19 15:57:00,81.2,62.2,30.07,WSW,239,0.0,236.6,53,0.00,,,0.00,VWS V14.01,2013-08-19 19:57:00,
2013-08-19 16:03:00,80.7,62.4,30.07,WSW,239,0.0,236.6,54,0.00,,,0.00,VWS V14.01,2013-08-19 20:03:00,
2013-08-19 16:08:00,80.5,63.0,30.07,WSW,239,0.0,236.6,55,0.00,,,0.00,VWS V14.01,2013-08-19 20:08:00,
2013-08-19 16:13:00,80.4,63.2,30.07,WSW,239,0.0,236.6,56,0.00,,,0.00,VWS V14.01,2013-08-19 20:13:00,
2013-08-19 16:19:00,80.3,63.0,30.07,WSW,239,0.0,236.6,56,0.00,,,0.00,VWS V14.01,2013-08-19 20:19:00,
2013-08-19 16:24:00,80.0,63.2,30.07,WSW,239,0.0,236.6,57,0.00,,,0.00,VWS V14.01,2013-08-19 20:24:00,
2013-08-19 16:29:00,79.9,63.6,30.07,WSW,239,0.0,236.6,58,0.00,,,0.00,VWS V14.01,2013-08-19 20:29:00,
2013-08-19 16:34:00,79.5,63.6,30.07,WSW,239,0.0,236.6,58,0.00,,,0.00,VWS V14.01,2013-08-19 20:34:00,
2013-08-19 16:40:00,79.7,63.8,30.07,WSW,239,0.0,236.6,58,0.00,,,0.00,VWS V14.01,2013-08-19 20:40:00,
2013-08-19 16:45:00,79.4,63.5,30.07,WSW,239,0.0,236.6,58,0.00,,,0.00,VWS V14.01,2013-08-19 20:45:00,
2013-08-19 16:50:00,79.4,64.0,30.07,WSW,239,0.0,236.6,59,0.00,,,0.00,VWS V14.01,2013-08-19 20:50:00,
2013-08-19 16:55:00,79.3,64.3,30.07,WSW,239,0.0,236.6,60,0.00,,,0.00,VWS V14.01,2013-08-19 20:55:00,
2013-08-19 17:00:00,79.2,64.4,30.07,WSW,239,0.0,236.6,60,0.00,,,0.00,VWS V14.01,2013-08-19 21:00:00,
2013-08-19 17:06:00,78.9,64.5,30.07,WSW,239,0.0,236.6,61,0.00,,,0.00,VWS V14.01,2013-08-19 21:06:00,
2013-08-19 17:11:00,78.4,64.2,30.08,WSW,239,0.0,236.6,62,0.00,,,0.00,VWS V14.01,2013-08-19 21:11:00,
2013-08-19 17:16:00,78.2,64.4,30.08,WSW,239,0.0,236.6,63,0.00,,,0.00,VWS V14.01,2013-08-19 21:16:00,
2013-08-19 17:21:00,78.1,64.6,30.08,WSW,239,0.0,236.6,63,0.00,,,0.00,VWS V14.01,2013-08-19 21:21:00,
2013-08-19 17:27:00,77.8,64.6,30.07,WSW,239,0.0,236.6,64,0.00,,,0.00,VWS V14.01,2013-08-19 21:27:00,
2013-08-19 17:32:00,78.0,65.0,30.07,WSW,239,0.0,236.6,64,0.00,,,0.00,VWS V14.01,2013-08-19 21:32:00,
2013-08-19 17:37:00,77.8,65.2,30.07,WSW,239,0.0,236.6,65,0.00,,,0.00,VWS V14.01,2013-08-19 21:37:00,
2013-08-19 17:42:00,77.7,65.1,30.07,WSW,239,0.0,236.6,65,0.00,,,0.00,VWS V14.01,2013-08-19 21:42:00,
2013-08-19 17:48:00,77.4,64.6,30.07,WSW,239,0.0,236.6,65,0.00,,,0.00,VWS V14.01,2013-08-19 21:48:00,
2013-08-19 17:53:00,77.7,64.9,30.07,WSW,239,0.0,236.6,65,0.00,,,0.00,VWS V14.01,2013-08-19 21:53:00,
2013-08-19 17:58:00,77.5,64.9,30.07,WSW,239,0.0,236.6,65,0.00,,,0.00,VWS V14.01,2013-08-19 21:58:00,
2013-08-19 18:03:00,77.5,65.0,30.07,WSW,239,0.0,236.6,65,0.00,,,0.00,VWS V14.01,2013-08-19 22:03:00,
2013-08-19 18:09:00,77.5,64.9,30.07,WSW,239,0.0,236.6,65,0.00,,,0.00,VWS V14.01,2013-08-19 22:09:00,
2013-08-19 18:14:00,77.4,65.0,30.07,WSW,239,0.0,236.6,66,0.00,,,0.00,VWS V14.01,2013-08-19 22:14:00,
2013-08-19 18:19:00,77.2,64.7,30.07,WSW,239,0.0,236.6,65,0.00,,,0.00,VWS V14.01,2013-08-19 22:19:00,
2013-08-19 18:24:00,77.4,65.3,30.07,WSW,239,0.0,236.6,66,0.00,,,0.00,VWS V14.01,2013-08-19 22:24:00,
2013-08-19 18:29:00,77.2,65.0,30.07,WSW,239,0.0,236.6,66,0.00,,,0.00,VWS V14.01,2013-08-19 22:29:00,
2013-08-19 18:35:00,77.1,64.8,30.07,WSW,239,0.0,236.6,66,0.00,,,0.00,VWS V14.01,2013-08-19 22:35:00,
2013-08-19 18:40:00,77.1,65.1,30.07,WSW,239,0.0,236.6,66,0.00,,,0.00,VWS V14.01,2013-08-19 22:40:00,
2013-08-19 18:45:00,76.9,65.1,30.07,WSW,239,0.0,236.6,67,0.00,,,0.00,VWS V14.01,2013-08-19 22:45:00,
2013-08-19 18:50:00,76.9,65.1,30.07,WSW,239,0.0,236.6,67,0.00,,,0.00,VWS V14.01,2013-08-19 22:50:00,
2013-08-19 18:55:00,76.7,64.9,30.07,WSW,239,0.0,236.6,67,0.00,,,0.00,VWS V14.01,2013-08-19 22:55:00,
2013-08-19 19:01:00,76.4,64.9,30.07,WSW,239,0.0,236.6,68,0.00,,,0.00,VWS V14.01,2013-08-19 23:01:00,
2013-08-19 19:06:00,76.3,64.9,30.07,WSW,239,0.0,236.6,68,0.00,,,0.00,VWS V14.01,2013-08-19 23:06:00,
2013-08-19 19:11:00,76.2,65.2,30.07,WSW,239,0.0,236.6,69,0.00,,,0.00,VWS V14.01,2013-08-19 23:11:00,
2013-08-19 19:16:00,76.1,65.3,30.07,WSW,239,0.0,236.6,69,0.00,,,0.00,VWS V14.01,2013-08-19 23:16:00,
2013-08-19 19:21:00,76.0,65.2,30.07,WSW,239,0.0,236.6,69,0.00,,,0.00,VWS V14.01,2013-08-19 23:21:00,
2013-08-19 19:27:00,75.7,65.2,30.07,WSW,239,0.0,236.6,70,0.00,,,0.00,VWS V14.01,2013-08-19 23:27:00,
2013-08-19 19:32:00,75.3,65.2,30.06,WSW,239,0.0,236.6,71,0.00,,,0.00,VWS V14.01,2013-08-19 23:32:00,
2013-08-19 19:37:00,75.0,65.4,30.07,WSW,239,0.0,236.6,72,0.00,,,0.00,VWS V14.01,2013-08-19 23:37:00,
2013-08-19 19:42:00,74.6,65.4,30.06,WSW,239,0.0,236.6,73,0.00,,,0.00,VWS V14.01,2013-08-19 23:42:00,
2013-08-19 19:47:00,74.2,65.2,30.06,WSW,239,0.0,236.6,74,0.00,,,0.00,VWS V14.01,2013-08-19 23:47:00,
2013-08-19 19:53:00,73.9,65.4,30.06,WSW,239,0.0,236.6,75,0.00,,,0.00,VWS V14.01,2013-08-19 23:53:00,
2013-08-19 19:58:00,73.5,65.4,30.06,WSW,239,0.0,236.6,76,0.00,,,0.00,VWS V14.01,2013-08-19 23:58:00,
2013-08-19 20:03:00,73.1,65.5,30.06,WSW,239,0.0,236.6,77,0.00,,,0.00,VWS V14.01,2013-08-20 00:03:00,
2013-08-19 20:08:00,72.8,65.6,30.06,WSW,239,0.0,236.6,78,0.00,,,0.00,VWS V14.01,2013-08-20 00:08:00,
2013-08-19 20:14:00,72.5,65.4,30.06,WSW,239,0.0,236.6,78,0.00,,,0.00,VWS V14.01,2013-08-20 00:14:00,
2013-08-19 20:19:00,72.2,65.6,30.06,WSW,239,0.0,236.6,80,0.00,,,0.00,VWS V14.01,2013-08-20 00:19:00,
2013-08-19 20:24:00,72.1,65.6,30.07,WSW,239,0.0,236.6,80,0.00,,,0.00,VWS V14.01,2013-08-20 00:24:00,
2013-08-19 20:30:00,72.1,65.6,30.07,WSW,239,0.0,236.6,80,0.00,,,0.00,VWS V14.01,2013-08-20 00:30:00,
2013-08-19 20:35:00,72.0,65.8,30.07,WSW,239,0.0,236.6,81,0.00,,,0.00,VWS V14.01,2013-08-20 00:35:00,
2013-08-19 20:41:00,71.9,65.8,30.07,WSW,239,0.0,236.6,81,0.00,,,0.00,VWS V14.01,2013-08-20 00:41:00,
2013-08-19 20:46:00,71.9,65.8,30.07,WSW,239,0.0,236.6,81,0.00,,,0.00,VWS V14.01,2013-08-20 00:46:00,
2013-08-19 20:51:00,71.8,66.2,30.07,WSW,239,0.0,236.6,82,0.00,,,0.00,VWS V14.01,2013-08-20 00:51:00,
2013-08-19 20:56:00,71.5,66.2,30.07,WSW,239,0.0,236.6,83,0.00,,,0.00,VWS V14.01,2013-08-20 00:56:00,
2013-08-19 21:01:00,71.3,66.1,30.07,WSW,239,0.0,236.6,84,0.00,,,0.00,VWS V14.01,2013-08-20 01:01:00,
2013-08-19 21:07:00,71.2,65.9,30.07,WSW,239,0.0,236.6,84,0.00,,,0.00,VWS V14.01,2013-08-20 01:07:00,
2013-08-19 21:12:00,70.9,66.2,30.08,WSW,239,0.0,236.6,85,0.00,,,0.00,VWS V14.01,2013-08-20 01:12:00,
2013-08-19 21:17:00,70.5,66.2,30.08,WSW,239,0.0,236.6,86,0.00,,,0.00,VWS V14.01,2013-08-20 01:17:00,
2013-08-19 21:22:00,70.1,66.2,30.08,WSW,239,0.0,236.6,87,0.00,,,0.00,VWS V14.01,2013-08-20 01:22:00,
2013-08-19 21:28:00,70.0,66.3,30.08,WSW,239,0.0,236.6,88,0.00,,,0.00,VWS V14.01,2013-08-20 01:28:00,
2013-08-19 21:33:00,69.8,66.4,30.08,WSW,239,0.0,236.6,89,0.00,,,0.00,VWS V14.01,2013-08-20 01:33:00,
2013-08-19 21:38:00,69.7,66.5,30.08,WSW,239,0.0,236.6,90,0.00,,,0.00,VWS V14.01,2013-08-20 01:38:00,
2013-08-19 21:43:00,69.7,66.5,30.08,WSW,239,0.0,236.6,90,0.00,,,0.00,VWS V14.01,2013-08-20 01:43:00,
2013-08-19 21:48:00,69.8,66.5,30.08,WSW,239,0.0,236.6,89,0.00,,,0.00,VWS V14.01,2013-08-20 01:48:00,
2013-08-19 21:54:00,70.0,66.7,30.08,WSW,239,0.0,236.6,89,0.00,,,0.00,VWS V14.01,2013-08-20 01:54:00,
2013-08-19 21:59:00,70.0,66.6,30.08,WSW,239,0.0,236.6,89,0.00,,,0.00,VWS V14.01,2013-08-20 01:59:00,
2013-08-19 22:04:00,70.0,66.6,30.08,WSW,239,0.0,236.6,89,0.00,,,0.00,VWS V14.01,2013-08-20 02:04:00,
2013-08-19 22:09:00,70.0,66.6,30.08,WSW,239,0.0,236.6,89,0.00,,,0.00,VWS V14.01,2013-08-20 02:09:00,
2013-08-19 22:15:00,69.9,66.4,30.08,WSW,239,0.0,236.6,89,0.00,,,0.00,VWS V14.01,2013-08-20 02:15:00,
2013-08-19 22:20:00,69.9,66.4,30.08,WSW,239,0.0,236.6,89,0.00,,,0.00,VWS V14.01,2013-08-20 02:20:00,
2013-08-19 22:25:00,69.9,66.3,30.08,WSW,239,0.0,236.6,88,0.00,,,0.00,VWS V14.01,2013-08-20 02:25:00,
2013-08-19 22:30:00,69.9,66.4,30.08,WSW,239,0.0,236.6,89,0.00,,,0.00,VWS V14.01,2013-08-20 02:30:00,
2013-08-19 22:35:00,69.8,66.4,30.08,WSW,239,0.0,236.6,89,0.00,,,0.00,VWS V14.01,2013-08-20 02:35:00,
2013-08-19 22:41:00,69.7,66.3,30.08,WSW,239,0.0,236.6,89,0.00,,,0.00,VWS V14.01,2013-08-20 02:41:00,
2013-08-19 22:46:00,69.7,66.2,30.08,WSW,239,0.0,236.6,89,0.00,,,0.00,VWS V14.01,2013-08-20 02:46:00,
2013-08-19 22:51:00,69.6,66.2,30.08,WSW,239,0.0,236.6,89,0.00,,,0.00,VWS V14.01,2013-08-20 02:51:00,
2013-08-19 22:56:00,69.5,66.1,30.08,WSW,239,0.0,236.6,89,0.00,,,0.00,VWS V14.01,2013-08-20 02:56:00,
2013-08-19 23:01:00,69.4,66.3,30.08,WSW,239,0.0,236.6,90,0.00,,,0.00,VWS V14.01,2013-08-20 03:01:00,
2013-08-19 23:07:00,69.2,65.9,30.08,WSW,239,0.0,236.6,89,0.00,,,0.00,VWS V14.01,2013-08-20 03:07:00,
2013-08-19 23:12:00,69.0,65.7,30.08,WSW,239,0.0,236.6,89,0.00,,,0.00,VWS V14.01,2013-08-20 03:12:00,
2013-08-19 23:17:00,68.8,65.7,30.08,WSW,239,0.0,236.6,90,0.00,,,0.00,VWS V14.01,2013-08-20 03:17:00,
2013-08-19 23:22:00,68.7,65.5,30.08,WSW,239,0.0,236.6,90,0.00,,,0.00,VWS V14.01,2013-08-20 03:22:00,
2013-08-19 23:27:00,68.5,65.3,30.09,WSW,239,0.0,236.6,90,0.00,,,0.00,VWS V14.01,2013-08-20 03:27:00,
2013-08-19 23:32:00,68.4,65.3,30.08,WSW,239,0.0,236.6,90,0.00,,,0.00,VWS V14.01,2013-08-20 03:32:00,
2013-08-19 23:38:00,68.3,65.1,30.08,WSW,239,0.0,236.6,89,0.00,,,0.00,VWS V14.01,2013-08-20 03:38:00,
2013-08-19 23:43:00,68.2,65.0,30.08,WSW,239,0.0,236.6,90,0.00,,,0.00,VWS V14.01,2013-08-20 03:43:00,
2013-08-19 23:48:00,68.0,65.0,30.08,WSW,239,0.0,236.6,90,0.00,,,0.00,VWS V14.01,2013-08-20 03:48:00,
2013-08-19 23:53:00,67.9,65.0,30.09,WSW,239,0.0,236.6,90,0.00,,,0.00,VWS V14.01,2013-08-20 03:53:00,
2013-08-19 23:59:00,67.8,64.8,30.09,WSW,239,0.0,236.6,90,0.00,,,0.00,VWS V14.01,2013-08-20 03:59:00,